sensor_id;sensor_type;location;lat;lon;timestamp;temperature;humidity
14359;DHT22;7263;49.418;11.064;2023-12-22T00:02:08;4.80;99.90
14359;DHT22;7263;49.418;11.064;2023-12-22T00:04:39;4.90;99.90
14359;DHT22;7263;49.418;11.064;2023-12-22T00:07:05;4.90;99.90
14359;DHT22;7263;49.418;11.064;2023-12-22T00:09:32;4.80;99.90
14359;DHT22;7263;49.418;11.064;2023-12-22T00:11:59;4.80;99.90
14359;DHT22;7263;49.418;11.064;2023-12-22T00:14:26;4.80;99.90
14359;DHT22;7263;49.418;11.064;2023-12-22T00:16:56;4.80;99.90
14359;DHT22;7263;49.418;11.064;2023-12-22T00:19:24;4.70;99.90
14359;DHT22;7263;49.418;11.064;2023-12-22T00:22:01;4.70;99.90
14359;DHT22;7263;49.418;11.064;2023-12-22T00:24:29;4.70;99.90
14359;DHT22;7263;49.418;11.064;2023-12-22T00:26:55;4.60;99.90
14359;DHT22;7263;49.418;11.064;2023-12-22T00:29:29;4.60;99.90
14359;DHT22;7263;49.418;11.064;2023-12-22T00:31:56;4.60;99.90
14359;DHT22;7263;49.418;11.064;2023-12-22T00:34:23;4.50;99.90
14359;DHT22;7263;49.418;11.064;2023-12-22T00:36:52;4.40;99.90
14359;DHT22;7263;49.418;11.064;2023-12-22T00:39:23;4.40;99.90
14359;DHT22;7263;49.418;11.064;2023-12-22T00:41:57;4.40;99.90
14359;DHT22;7263;49.418;11.064;2023-12-22T00:44:24;4.30;99.90
14359;DHT22;7263;49.418;11.064;2023-12-22T00:46:55;4.30;99.90
14359;DHT22;7263;49.418;11.064;2023-12-22T00:49:24;4.30;99.90
14359;DHT22;7263;49.418;11.064;2023-12-22T00:51:54;4.30;99.90
14359;DHT22;7263;49.418;11.064;2023-12-22T00:54:22;4.30;99.90
14359;DHT22;7263;49.418;11.064;2023-12-22T00:56:59;4.30;99.90
14359;DHT22;7263;49.418;11.064;2023-12-22T00:59:29;4.30;99.90
14359;DHT22;7263;49.418;11.064;2023-12-22T01:01:56;4.30;99.90
14359;DHT22;7263;49.418;11.064;2023-12-22T01:04:29;4.30;99.90
14359;DHT22;7263;49.418;11.064;2023-12-22T01:07:10;4.30;99.90
14359;DHT22;7263;49.418;11.064;2023-12-22T01:09:42;4.30;99.90
14359;DHT22;7263;49.418;11.064;2023-12-22T01:12:11;4.30;99.90
14359;DHT22;7263;49.418;11.064;2023-12-22T01:14:42;4.30;99.90
14359;DHT22;7263;49.418;11.064;2023-12-22T01:17:10;4.30;99.90
14359;DHT22;7263;49.418;11.064;2023-12-22T01:19:37;4.30;99.90
14359;DHT22;7263;49.418;11.064;2023-12-22T01:22:19;4.30;99.90
14359;DHT22;7263;49.418;11.064;2023-12-22T01:24:58;4.20;99.90
14359;DHT22;7263;49.418;11.064;2023-12-22T01:27:30;4.30;99.90
14359;DHT22;7263;49.418;11.064;2023-12-22T01:30:00;4.30;99.90
14359;DHT22;7263;49.418;11.064;2023-12-22T01:32:29;4.30;99.90
14359;DHT22;7263;49.418;11.064;2023-12-22T01:35:02;4.30;99.90
14359;DHT22;7263;49.418;11.064;2023-12-22T01:37:34;4.30;99.90
14359;DHT22;7263;49.418;11.064;2023-12-22T01:40:10;4.30;99.90
14359;DHT22;7263;49.418;11.064;2023-12-22T01:42:42;4.40;99.90
14359;DHT22;7263;49.418;11.064;2023-12-22T01:45:12;4.40;99.90
14359;DHT22;7263;49.418;11.064;2023-12-22T01:47:39;4.40;99.90
14359;DHT22;7263;49.418;11.064;2023-12-22T01:50:10;4.40;99.90
14359;DHT22;7263;49.418;11.064;2023-12-22T01:52:42;4.40;99.90
14359;DHT22;7263;49.418;11.064;2023-12-22T01:55:19;4.40;99.90
14359;DHT22;7263;49.418;11.064;2023-12-22T01:57:50;4.40;99.90
14359;DHT22;7263;49.418;11.064;2023-12-22T02:00:17;4.40;99.90
14359;DHT22;7263;49.418;11.064;2023-12-22T02:02:55;4.40;99.90
14359;DHT22;7263;49.418;11.064;2023-12-22T02:05:24;4.40;99.90
14359;DHT22;7263;49.418;11.064;2023-12-22T02:08:04;4.40;99.90
14359;DHT22;7263;49.418;11.064;2023-12-22T02:10:32;4.30;99.90
14359;DHT22;7263;49.418;11.064;2023-12-22T02:12:59;4.40;99.90
14359;DHT22;7263;49.418;11.064;2023-12-22T02:15:29;4.40;99.90
14359;DHT22;7263;49.418;11.064;2023-12-22T02:18:02;4.40;99.90
14359;DHT22;7263;49.418;11.064;2023-12-22T02:20:32;4.30;99.90
14359;DHT22;7263;49.418;11.064;2023-12-22T02:23:00;4.40;99.90
14359;DHT22;7263;49.418;11.064;2023-12-22T02:25:30;4.40;99.90
14359;DHT22;7263;49.418;11.064;2023-12-22T02:28:05;4.40;99.90
14359;DHT22;7263;49.418;11.064;2023-12-22T02:30:50;4.40;99.90
14359;DHT22;7263;49.418;11.064;2023-12-22T02:33:23;4.40;99.90
14359;DHT22;7263;49.418;11.064;2023-12-22T02:35:54;4.40;99.90
14359;DHT22;7263;49.418;11.064;2023-12-22T02:38:27;4.50;99.90
14359;DHT22;7263;49.418;11.064;2023-12-22T02:40:55;4.50;99.90
14359;DHT22;7263;49.418;11.064;2023-12-22T02:43:27;4.50;99.90
14359;DHT22;7263;49.418;11.064;2023-12-22T02:45:54;4.50;99.90
14359;DHT22;7263;49.418;11.064;2023-12-22T02:48:23;4.50;99.90
14359;DHT22;7263;49.418;11.064;2023-12-22T02:50:53;4.50;99.90
14359;DHT22;7263;49.418;11.064;2023-12-22T02:53:19;4.40;99.90
14359;DHT22;7263;49.418;11.064;2023-12-22T02:55:47;4.30;99.90
14359;DHT22;7263;49.418;11.064;2023-12-22T02:58:31;4.20;99.90
14359;DHT22;7263;49.418;11.064;2023-12-22T03:01:06;4.20;99.90
14359;DHT22;7263;49.418;11.064;2023-12-22T03:03:38;4.10;99.90
14359;DHT22;7263;49.418;11.064;2023-12-22T03:06:05;4.10;99.90
14359;DHT22;7263;49.418;11.064;2023-12-22T03:08:32;4.10;99.90
14359;DHT22;7263;49.418;11.064;2023-12-22T03:11:10;4.00;99.90
14359;DHT22;7263;49.418;11.064;2023-12-22T03:13:39;4.10;99.90
14359;DHT22;7263;49.418;11.064;2023-12-22T03:16:14;4.10;99.90
14359;DHT22;7263;49.418;11.064;2023-12-22T03:18:40;7.30;99.90
14359;DHT22;7263;49.418;11.064;2023-12-22T03:21:07;4.00;99.90
14359;DHT22;7263;49.418;11.064;2023-12-22T03:23:44;4.00;99.90
14359;DHT22;7263;49.418;11.064;2023-12-22T03:26:13;4.00;99.90
14359;DHT22;7263;49.418;11.064;2023-12-22T03:28:45;4.00;99.90
14359;DHT22;7263;49.418;11.064;2023-12-22T03:31:14;4.00;99.90
14359;DHT22;7263;49.418;11.064;2023-12-22T03:33:58;4.00;99.90
14359;DHT22;7263;49.418;11.064;2023-12-22T03:36:25;4.00;99.90
14359;DHT22;7263;49.418;11.064;2023-12-22T03:38:54;4.00;99.90
14359;DHT22;7263;49.418;11.064;2023-12-22T03:41:25;4.00;99.90
14359;DHT22;7263;49.418;11.064;2023-12-22T03:43:54;4.00;99.90
14359;DHT22;7263;49.418;11.064;2023-12-22T03:46:24;3.90;99.90
14359;DHT22;7263;49.418;11.064;2023-12-22T03:48:53;3.90;99.90
14359;DHT22;7263;49.418;11.064;2023-12-22T03:51:23;3.90;99.90
14359;DHT22;7263;49.418;11.064;2023-12-22T03:53:50;3.80;99.90
14359;DHT22;7263;49.418;11.064;2023-12-22T03:56:17;3.80;99.90
14359;DHT22;7263;49.418;11.064;2023-12-22T03:58:45;3.80;99.90
14359;DHT22;7263;49.418;11.064;2023-12-22T04:01:15;3.70;99.90
14359;DHT22;7263;49.418;11.064;2023-12-22T04:03:42;3.70;99.90
14359;DHT22;7263;49.418;11.064;2023-12-22T04:06:12;3.60;99.90
14359;DHT22;7263;49.418;11.064;2023-12-22T04:08:38;3.60;99.90
14359;DHT22;7263;49.418;11.064;2023-12-22T04:11:06;3.60;99.90
14359;DHT22;7263;49.418;11.064;2023-12-22T04:13:32;3.60;99.90
14359;DHT22;7263;49.418;11.064;2023-12-22T04:16:04;3.60;99.90
14359;DHT22;7263;49.418;11.064;2023-12-22T04:18:36;3.60;99.90
14359;DHT22;7263;49.418;11.064;2023-12-22T04:21:08;3.60;99.90
14359;DHT22;7263;49.418;11.064;2023-12-22T04:23:35;3.60;99.90
14359;DHT22;7263;49.418;11.064;2023-12-22T04:26:02;3.50;99.90
14359;DHT22;7263;49.418;11.064;2023-12-22T04:28:28;3.60;99.90
14359;DHT22;7263;49.418;11.064;2023-12-22T04:30:57;3.60;99.90
14359;DHT22;7263;49.418;11.064;2023-12-22T04:33:34;3.60;99.90
14359;DHT22;7263;49.418;11.064;2023-12-22T04:36:04;3.60;99.90
14359;DHT22;7263;49.418;11.064;2023-12-22T04:38:32;3.60;99.90
14359;DHT22;7263;49.418;11.064;2023-12-22T04:41:03;3.60;99.90
14359;DHT22;7263;49.418;11.064;2023-12-22T04:43:32;3.60;99.90
14359;DHT22;7263;49.418;11.064;2023-12-22T04:46:01;3.50;99.90
14359;DHT22;7263;49.418;11.064;2023-12-22T04:48:30;3.50;99.90
14359;DHT22;7263;49.418;11.064;2023-12-22T04:51:06;6.40;99.90
14359;DHT22;7263;49.418;11.064;2023-12-22T04:53:41;3.50;99.90
14359;DHT22;7263;49.418;11.064;2023-12-22T04:56:08;3.50;99.90
14359;DHT22;7263;49.418;11.064;2023-12-22T04:58:35;3.50;99.90
14359;DHT22;7263;49.418;11.064;2023-12-22T05:01:04;3.50;99.90
14359;DHT22;7263;49.418;11.064;2023-12-22T05:03:35;3.50;99.90
14359;DHT22;7263;49.418;11.064;2023-12-22T05:06:09;3.50;99.90
14359;DHT22;7263;49.418;11.064;2023-12-22T05:08:44;3.50;99.90
14359;DHT22;7263;49.418;11.064;2023-12-22T05:11:25;3.40;99.90
14359;DHT22;7263;49.418;11.064;2023-12-22T05:13:51;3.50;99.90
14359;DHT22;7263;49.418;11.064;2023-12-22T05:16:21;3.40;99.90
14359;DHT22;7263;49.418;11.064;2023-12-22T05:18:52;1.60;99.90
14359;DHT22;7263;49.418;11.064;2023-12-22T05:21:21;3.50;99.90
14359;DHT22;7263;49.418;11.064;2023-12-22T05:23:48;3.50;99.90
14359;DHT22;7263;49.418;11.064;2023-12-22T05:26:19;3.60;99.90
14359;DHT22;7263;49.418;11.064;2023-12-22T05:28:48;3.60;99.90
14359;DHT22;7263;49.418;11.064;2023-12-22T05:31:32;3.70;99.90
14359;DHT22;7263;49.418;11.064;2023-12-22T05:34:04;3.70;99.90
14359;DHT22;7263;49.418;11.064;2023-12-22T05:36:37;3.70;99.90
14359;DHT22;7263;49.418;11.064;2023-12-22T05:39:03;3.70;99.90
14359;DHT22;7263;49.418;11.064;2023-12-22T05:41:35;3.70;99.90
14359;DHT22;7263;49.418;11.064;2023-12-22T05:44:03;3.70;99.90
14359;DHT22;7263;49.418;11.064;2023-12-22T05:46:30;3.70;99.90
14359;DHT22;7263;49.418;11.064;2023-12-22T05:48:57;3.60;99.90
14359;DHT22;7263;49.418;11.064;2023-12-22T05:51:37;3.60;99.90
14359;DHT22;7263;49.418;11.064;2023-12-22T05:54:07;3.50;99.90
14359;DHT22;7263;49.418;11.064;2023-12-22T05:56:38;3.40;99.90
14359;DHT22;7263;49.418;11.064;2023-12-22T05:59:08;3.30;99.90
14359;DHT22;7263;49.418;11.064;2023-12-22T06:01:35;3.20;99.90
14359;DHT22;7263;49.418;11.064;2023-12-22T06:04:05;3.20;99.90
14359;DHT22;7263;49.418;11.064;2023-12-22T06:06:34;3.10;99.90
14359;DHT22;7263;49.418;11.064;2023-12-22T06:09:00;3.00;99.90
14359;DHT22;7263;49.418;11.064;2023-12-22T06:11:30;3.10;99.90
14359;DHT22;7263;49.418;11.064;2023-12-22T06:13:57;3.00;99.90
14359;DHT22;7263;49.418;11.064;2023-12-22T06:16:24;2.90;99.90
14359;DHT22;7263;49.418;11.064;2023-12-22T06:18:52;2.90;99.90
14359;DHT22;7263;49.418;11.064;2023-12-22T06:21:19;2.90;99.90
14359;DHT22;7263;49.418;11.064;2023-12-22T06:23:58;2.90;99.90
14359;DHT22;7263;49.418;11.064;2023-12-22T06:26:28;2.70;99.90
14359;DHT22;7263;49.418;11.064;2023-12-22T06:28:56;2.90;99.90
14359;DHT22;7263;49.418;11.064;2023-12-22T06:31:26;2.80;99.90
14359;DHT22;7263;49.418;11.064;2023-12-22T06:33:53;2.80;99.90
14359;DHT22;7263;49.418;11.064;2023-12-22T06:36:26;2.80;99.90
14359;DHT22;7263;49.418;11.064;2023-12-22T06:38:54;2.70;99.90
14359;DHT22;7263;49.418;11.064;2023-12-22T06:41:38;2.80;99.90
14359;DHT22;7263;49.418;11.064;2023-12-22T06:44:08;2.70;99.90
14359;DHT22;7263;49.418;11.064;2023-12-22T06:46:36;2.70;99.90
14359;DHT22;7263;49.418;11.064;2023-12-22T06:49:08;2.70;99.90
14359;DHT22;7263;49.418;11.064;2023-12-22T06:51:41;2.70;99.90
14359;DHT22;7263;49.418;11.064;2023-12-22T06:57:33;2.60;99.90
14359;DHT22;7263;49.418;11.064;2023-12-22T07:00:09;2.70;99.90
14359;DHT22;7263;49.418;11.064;2023-12-22T07:02:36;2.80;99.90
14359;DHT22;7263;49.418;11.064;2023-12-22T07:05:33;2.80;99.90
14359;DHT22;7263;49.418;11.064;2023-12-22T07:08:03;2.90;99.90
14359;DHT22;7263;49.418;11.064;2023-12-22T07:10:32;3.00;99.90
14359;DHT22;7263;49.418;11.064;2023-12-22T07:13:03;3.00;99.90
14359;DHT22;7263;49.418;11.064;2023-12-22T07:15:36;3.50;99.90
14359;DHT22;7263;49.418;11.064;2023-12-22T07:18:03;3.20;99.90
14359;DHT22;7263;49.418;11.064;2023-12-22T07:20:33;3.40;99.90
14359;DHT22;7263;49.418;11.064;2023-12-22T07:23:03;3.40;99.90
14359;DHT22;7263;49.418;11.064;2023-12-22T07:25:36;3.60;99.90
14359;DHT22;7263;49.418;11.064;2023-12-22T07:28:08;3.50;99.90
14359;DHT22;7263;49.418;11.064;2023-12-22T07:30:38;3.70;99.90
14359;DHT22;7263;49.418;11.064;2023-12-22T07:33:08;3.70;99.90
14359;DHT22;7263;49.418;11.064;2023-12-22T07:35:35;3.70;99.90
14359;DHT22;7263;49.418;11.064;2023-12-22T07:38:08;3.80;99.90
14359;DHT22;7263;49.418;11.064;2023-12-22T07:40:39;3.90;99.90
14359;DHT22;7263;49.418;11.064;2023-12-22T07:43:12;3.90;99.90
14359;DHT22;7263;49.418;11.064;2023-12-22T07:45:46;3.90;99.90
14359;DHT22;7263;49.418;11.064;2023-12-22T07:48:13;3.90;99.90
14359;DHT22;7263;49.418;11.064;2023-12-22T07:50:43;4.00;99.90
14359;DHT22;7263;49.418;11.064;2023-12-22T07:53:17;4.00;99.90
14359;DHT22;7263;49.418;11.064;2023-12-22T07:56:00;4.10;99.90
14359;DHT22;7263;49.418;11.064;2023-12-22T07:58:31;4.10;99.90
14359;DHT22;7263;49.418;11.064;2023-12-22T08:01:03;4.20;99.90
14359;DHT22;7263;49.418;11.064;2023-12-22T08:03:41;4.20;99.90
14359;DHT22;7263;49.418;11.064;2023-12-22T08:06:07;4.20;99.90
14359;DHT22;7263;49.418;11.064;2023-12-22T08:08:39;4.30;99.90
14359;DHT22;7263;49.418;11.064;2023-12-22T08:11:06;4.20;99.90
14359;DHT22;7263;49.418;11.064;2023-12-22T08:13:47;4.30;99.90
14359;DHT22;7263;49.418;11.064;2023-12-22T08:16:27;4.30;99.90
14359;DHT22;7263;49.418;11.064;2023-12-22T08:19:04;4.40;99.90
14359;DHT22;7263;49.418;11.064;2023-12-22T08:21:44;4.40;99.90
14359;DHT22;7263;49.418;11.064;2023-12-22T08:24:10;4.40;99.90
14359;DHT22;7263;49.418;11.064;2023-12-22T08:26:37;4.40;99.90
14359;DHT22;7263;49.418;11.064;2023-12-22T08:29:10;4.40;99.90
14359;DHT22;7263;49.418;11.064;2023-12-22T08:31:50;4.40;99.90
14359;DHT22;7263;49.418;11.064;2023-12-22T08:34:17;4.50;99.90
14359;DHT22;7263;49.418;11.064;2023-12-22T08:36:44;4.50;99.90
14359;DHT22;7263;49.418;11.064;2023-12-22T08:39:14;4.50;99.90
14359;DHT22;7263;49.418;11.064;2023-12-22T08:41:45;4.50;99.90
14359;DHT22;7263;49.418;11.064;2023-12-22T08:44:25;4.50;99.90
14359;DHT22;7263;49.418;11.064;2023-12-22T08:47:02;4.50;99.90
14359;DHT22;7263;49.418;11.064;2023-12-22T08:49:48;4.50;99.90
14359;DHT22;7263;49.418;11.064;2023-12-22T08:52:18;4.40;99.90
14359;DHT22;7263;49.418;11.064;2023-12-22T08:54:46;4.40;99.90
14359;DHT22;7263;49.418;11.064;2023-12-22T08:57:16;4.40;99.90
14359;DHT22;7263;49.418;11.064;2023-12-22T08:59:44;4.40;99.90
14359;DHT22;7263;49.418;11.064;2023-12-22T09:02:21;4.40;99.90
14359;DHT22;7263;49.418;11.064;2023-12-22T09:04:51;4.40;99.90
14359;DHT22;7263;49.418;11.064;2023-12-22T09:07:20;4.50;99.90
14359;DHT22;7263;49.418;11.064;2023-12-22T09:09:51;4.60;99.90
14359;DHT22;7263;49.418;11.064;2023-12-22T09:12:17;4.60;99.90
14359;DHT22;7263;49.418;11.064;2023-12-22T09:14:49;4.70;99.90
14359;DHT22;7263;49.418;11.064;2023-12-22T09:17:19;4.70;99.90
14359;DHT22;7263;49.418;11.064;2023-12-22T09:19:45;4.70;99.90
14359;DHT22;7263;49.418;11.064;2023-12-22T09:22:14;4.80;99.90
14359;DHT22;7263;49.418;11.064;2023-12-22T09:24:51;4.90;99.90
14359;DHT22;7263;49.418;11.064;2023-12-22T09:27:18;4.90;99.90
14359;DHT22;7263;49.418;11.064;2023-12-22T09:29:59;5.00;99.90
14359;DHT22;7263;49.418;11.064;2023-12-22T09:32:26;5.10;99.90
14359;DHT22;7263;49.418;11.064;2023-12-22T09:34:56;5.10;99.90
14359;DHT22;7263;49.418;11.064;2023-12-22T09:37:24;5.20;99.90
14359;DHT22;7263;49.418;11.064;2023-12-22T09:39:57;5.20;99.90
14359;DHT22;7263;49.418;11.064;2023-12-22T09:42:27;5.20;99.90
14359;DHT22;7263;49.418;11.064;2023-12-22T09:45:00;5.30;99.90
14359;DHT22;7263;49.418;11.064;2023-12-22T09:47:35;5.30;99.90
14359;DHT22;7263;49.418;11.064;2023-12-22T09:50:05;5.30;99.90
14359;DHT22;7263;49.418;11.064;2023-12-22T09:52:36;5.20;99.90
14359;DHT22;7263;49.418;11.064;2023-12-22T09:55:21;5.20;99.90
14359;DHT22;7263;49.418;11.064;2023-12-22T09:57:51;5.20;99.90
14359;DHT22;7263;49.418;11.064;2023-12-22T10:00:21;5.20;99.90
14359;DHT22;7263;49.418;11.064;2023-12-22T10:02:53;5.20;99.90
14359;DHT22;7263;49.418;11.064;2023-12-22T10:05:20;5.10;99.90
14359;DHT22;7263;49.418;11.064;2023-12-22T10:07:47;4.90;99.90
14359;DHT22;7263;49.418;11.064;2023-12-22T10:10:23;4.90;99.90
14359;DHT22;7263;49.418;11.064;2023-12-22T10:12:52;4.90;99.90
14359;DHT22;7263;49.418;11.064;2023-12-22T10:15:23;4.80;99.90
14359;DHT22;7263;49.418;11.064;2023-12-22T10:17:50;4.90;99.90
14359;DHT22;7263;49.418;11.064;2023-12-22T10:20:20;4.80;99.90
14359;DHT22;7263;49.418;11.064;2023-12-22T10:22:46;4.80;99.90
14359;DHT22;7263;49.418;11.064;2023-12-22T10:25:22;4.90;99.90
14359;DHT22;7263;49.418;11.064;2023-12-22T10:27:57;4.90;99.90
14359;DHT22;7263;49.418;11.064;2023-12-22T10:30:29;5.00;99.90
14359;DHT22;7263;49.418;11.064;2023-12-22T10:33:04;5.00;99.90
14359;DHT22;7263;49.418;11.064;2023-12-22T10:35:34;5.10;99.90
14359;DHT22;7263;49.418;11.064;2023-12-22T10:38:01;5.20;99.90
14359;DHT22;7263;49.418;11.064;2023-12-22T10:40:36;5.20;99.90
14359;DHT22;7263;49.418;11.064;2023-12-22T10:43:04;5.30;99.90
14359;DHT22;7263;49.418;11.064;2023-12-22T10:45:35;5.50;99.90
14359;DHT22;7263;49.418;11.064;2023-12-22T10:48:13;5.30;99.90
14359;DHT22;7263;49.418;11.064;2023-12-22T10:50:40;5.40;99.90
14359;DHT22;7263;49.418;11.064;2023-12-22T10:53:07;5.50;99.90
14359;DHT22;7263;49.418;11.064;2023-12-22T10:55:38;5.40;99.90
14359;DHT22;7263;49.418;11.064;2023-12-22T10:58:05;5.30;99.90
14359;DHT22;7263;49.418;11.064;2023-12-22T11:00:40;5.30;99.90
14359;DHT22;7263;49.418;11.064;2023-12-22T11:03:14;5.40;99.90
14359;DHT22;7263;49.418;11.064;2023-12-22T11:05:51;5.40;99.90
14359;DHT22;7263;49.418;11.064;2023-12-22T11:08:20;5.40;99.90
14359;DHT22;7263;49.418;11.064;2023-12-22T11:10:56;5.40;99.90
14359;DHT22;7263;49.418;11.064;2023-12-22T11:13:26;5.40;99.90
14359;DHT22;7263;49.418;11.064;2023-12-22T11:16:00;5.40;99.90
14359;DHT22;7263;49.418;11.064;2023-12-22T11:18:28;5.40;99.90
14359;DHT22;7263;49.418;11.064;2023-12-22T11:20:57;5.30;99.90
14359;DHT22;7263;49.418;11.064;2023-12-22T11:23:25;5.30;99.90
14359;DHT22;7263;49.418;11.064;2023-12-22T11:25:53;5.40;99.90
14359;DHT22;7263;49.418;11.064;2023-12-22T11:28:23;5.40;99.90
14359;DHT22;7263;49.418;11.064;2023-12-22T11:30:52;5.40;99.90
14359;DHT22;7263;49.418;11.064;2023-12-22T11:33:25;5.40;99.90
14359;DHT22;7263;49.418;11.064;2023-12-22T11:35:58;5.40;99.90
14359;DHT22;7263;49.418;11.064;2023-12-22T11:38:35;5.40;99.90
14359;DHT22;7263;49.418;11.064;2023-12-22T11:41:02;5.30;99.90
14359;DHT22;7263;49.418;11.064;2023-12-22T11:43:33;5.30;99.90
14359;DHT22;7263;49.418;11.064;2023-12-22T11:46:02;5.30;99.90
14359;DHT22;7263;49.418;11.064;2023-12-22T11:48:33;5.30;99.90
14359;DHT22;7263;49.418;11.064;2023-12-22T11:51:18;5.30;99.90
14359;DHT22;7263;49.418;11.064;2023-12-22T11:53:46;5.40;99.90
14359;DHT22;7263;49.418;11.064;2023-12-22T11:56:17;5.40;99.90
14359;DHT22;7263;49.418;11.064;2023-12-22T11:58:51;5.40;99.90
14359;DHT22;7263;49.418;11.064;2023-12-22T12:01:21;5.40;99.90
14359;DHT22;7263;49.418;11.064;2023-12-22T12:03:51;5.40;99.90
14359;DHT22;7263;49.418;11.064;2023-12-22T12:06:30;5.50;99.90
14359;DHT22;7263;49.418;11.064;2023-12-22T12:09:04;5.50;99.90
14359;DHT22;7263;49.418;11.064;2023-12-22T12:12:11;5.50;99.90
14359;DHT22;7263;49.418;11.064;2023-12-22T12:14:41;5.60;99.90
14359;DHT22;7263;49.418;11.064;2023-12-22T12:17:15;5.60;99.90
14359;DHT22;7263;49.418;11.064;2023-12-22T12:19:45;5.70;99.90
14359;DHT22;7263;49.418;11.064;2023-12-22T12:22:14;5.80;99.90
14359;DHT22;7263;49.418;11.064;2023-12-22T12:24:46;5.90;99.90
14359;DHT22;7263;49.418;11.064;2023-12-22T12:27:17;6.00;99.90
14359;DHT22;7263;49.418;11.064;2023-12-22T12:29:45;6.10;99.90
14359;DHT22;7263;49.418;11.064;2023-12-22T12:32:14;6.10;99.90
14359;DHT22;7263;49.418;11.064;2023-12-22T12:34:47;6.10;99.90
14359;DHT22;7263;49.418;11.064;2023-12-22T12:37:33;6.20;99.90
14359;DHT22;7263;49.418;11.064;2023-12-22T12:40:07;6.20;99.90
14359;DHT22;7263;49.418;11.064;2023-12-22T12:42:35;6.20;99.90
14359;DHT22;7263;49.418;11.064;2023-12-22T12:45:15;6.30;99.90
14359;DHT22;7263;49.418;11.064;2023-12-22T12:48:04;6.50;99.90
14359;DHT22;7263;49.418;11.064;2023-12-22T12:50:47;6.30;99.90
14359;DHT22;7263;49.418;11.064;2023-12-22T12:53:14;6.30;99.90
14359;DHT22;7263;49.418;11.064;2023-12-22T12:55:46;6.40;99.90
14359;DHT22;7263;49.418;11.064;2023-12-22T12:58:16;6.40;99.90
14359;DHT22;7263;49.418;11.064;2023-12-22T13:00:43;6.40;99.90
14359;DHT22;7263;49.418;11.064;2023-12-22T13:03:15;6.40;99.90
14359;DHT22;7263;49.418;11.064;2023-12-22T13:05:53;6.40;99.90
14359;DHT22;7263;49.418;11.064;2023-12-22T13:08:31;6.50;99.90
14359;DHT22;7263;49.418;11.064;2023-12-22T13:11:00;6.50;99.90
14359;DHT22;7263;49.418;11.064;2023-12-22T13:13:27;6.50;99.90
14359;DHT22;7263;49.418;11.064;2023-12-22T13:15:58;6.60;99.90
14359;DHT22;7263;49.418;11.064;2023-12-22T13:18:25;6.70;99.90
14359;DHT22;7263;49.418;11.064;2023-12-22T13:20:53;6.70;99.90
14359;DHT22;7263;49.418;11.064;2023-12-22T13:23:20;6.70;99.90
14359;DHT22;7263;49.418;11.064;2023-12-22T13:25:49;6.70;99.90
14359;DHT22;7263;49.418;11.064;2023-12-22T13:28:27;6.70;99.90
14359;DHT22;7263;49.418;11.064;2023-12-22T13:31:09;6.70;99.90
14359;DHT22;7263;49.418;11.064;2023-12-22T13:33:37;6.70;99.90
14359;DHT22;7263;49.418;11.064;2023-12-22T13:36:06;6.80;99.90
14359;DHT22;7263;49.418;11.064;2023-12-22T13:38:34;6.80;99.90
14359;DHT22;7263;49.418;11.064;2023-12-22T13:41:03;6.80;99.90
14359;DHT22;7263;49.418;11.064;2023-12-22T13:43:31;6.90;99.90
14359;DHT22;7263;49.418;11.064;2023-12-22T13:46:00;6.80;99.90
14359;DHT22;7263;49.418;11.064;2023-12-22T13:48:36;6.80;99.90
14359;DHT22;7263;49.418;11.064;2023-12-22T13:51:14;6.80;99.90
14359;DHT22;7263;49.418;11.064;2023-12-22T13:53:52;6.80;99.90
14359;DHT22;7263;49.418;11.064;2023-12-22T13:56:22;6.80;99.90
14359;DHT22;7263;49.418;11.064;2023-12-22T13:58:51;6.80;99.90
14359;DHT22;7263;49.418;11.064;2023-12-22T14:01:18;6.70;99.90
14359;DHT22;7263;49.418;11.064;2023-12-22T14:03:53;6.70;99.90
14359;DHT22;7263;49.418;11.064;2023-12-22T14:06:23;6.70;99.90
14359;DHT22;7263;49.418;11.064;2023-12-22T14:08:50;6.70;99.90
14359;DHT22;7263;49.418;11.064;2023-12-22T14:11:17;6.70;99.90
14359;DHT22;7263;49.418;11.064;2023-12-22T14:13:48;6.70;99.90
14359;DHT22;7263;49.418;11.064;2023-12-22T14:16:17;6.70;99.90
14359;DHT22;7263;49.418;11.064;2023-12-22T14:18:52;6.60;99.90
14359;DHT22;7263;49.418;11.064;2023-12-22T14:21:20;6.60;99.90
14359;DHT22;7263;49.418;11.064;2023-12-22T14:23:48;6.60;99.90
14359;DHT22;7263;49.418;11.064;2023-12-22T14:26:15;6.60;99.90
14359;DHT22;7263;49.418;11.064;2023-12-22T14:28:42;6.60;99.90
14359;DHT22;7263;49.418;11.064;2023-12-22T14:31:12;6.60;99.90
14359;DHT22;7263;49.418;11.064;2023-12-22T14:33:45;6.70;99.90
14359;DHT22;7263;49.418;11.064;2023-12-22T14:36:14;6.70;99.90
14359;DHT22;7263;49.418;11.064;2023-12-22T14:38:45;6.70;99.90
14359;DHT22;7263;49.418;11.064;2023-12-22T14:41:13;6.80;99.90
14359;DHT22;7263;49.418;11.064;2023-12-22T14:43:47;6.90;99.90
14359;DHT22;7263;49.418;11.064;2023-12-22T14:46:27;6.90;99.90
14359;DHT22;7263;49.418;11.064;2023-12-22T14:48:57;7.00;99.90
14359;DHT22;7263;49.418;11.064;2023-12-22T14:51:23;7.10;99.90
14359;DHT22;7263;49.418;11.064;2023-12-22T14:53:51;7.00;99.90
14359;DHT22;7263;49.418;11.064;2023-12-22T14:56:22;7.10;99.90
14359;DHT22;7263;49.418;11.064;2023-12-22T14:58:54;7.10;99.90
14359;DHT22;7263;49.418;11.064;2023-12-22T15:01:21;7.20;99.90
14359;DHT22;7263;49.418;11.064;2023-12-22T15:03:50;7.20;99.90
14359;DHT22;7263;49.418;11.064;2023-12-22T15:06:20;7.20;99.90
14359;DHT22;7263;49.418;11.064;2023-12-22T15:08:54;7.20;99.90
14359;DHT22;7263;49.418;11.064;2023-12-22T15:11:28;7.20;99.90
14359;DHT22;7263;49.418;11.064;2023-12-22T15:13:55;7.20;99.90
14359;DHT22;7263;49.418;11.064;2023-12-22T15:16:22;7.20;99.90
14359;DHT22;7263;49.418;11.064;2023-12-22T15:18:49;7.20;99.90
14359;DHT22;7263;49.418;11.064;2023-12-22T15:21:26;7.20;99.90
14359;DHT22;7263;49.418;11.064;2023-12-22T15:23:53;4.00;99.90
14359;DHT22;7263;49.418;11.064;2023-12-22T15:26:23;7.20;99.90
14359;DHT22;7263;49.418;11.064;2023-12-22T15:29:02;7.20;99.90
14359;DHT22;7263;49.418;11.064;2023-12-22T15:31:29;7.20;99.90
14359;DHT22;7263;49.418;11.064;2023-12-22T15:34:00;7.20;99.90
14359;DHT22;7263;49.418;11.064;2023-12-22T15:36:30;7.20;99.90
14359;DHT22;7263;49.418;11.064;2023-12-22T15:39:00;7.10;99.90
14359;DHT22;7263;49.418;11.064;2023-12-22T15:41:28;7.20;99.90
14359;DHT22;7263;49.418;11.064;2023-12-22T15:44:02;7.10;99.90
14359;DHT22;7263;49.418;11.064;2023-12-22T15:46:29;7.10;99.90
14359;DHT22;7263;49.418;11.064;2023-12-22T15:48:58;7.10;99.90
14359;DHT22;7263;49.418;11.064;2023-12-22T15:51:27;7.10;99.90
14359;DHT22;7263;49.418;11.064;2023-12-22T15:53:57;7.10;99.90
14359;DHT22;7263;49.418;11.064;2023-12-22T15:56:24;7.10;99.90
14359;DHT22;7263;49.418;11.064;2023-12-22T15:58:53;7.20;99.90
14359;DHT22;7263;49.418;11.064;2023-12-22T16:01:22;7.30;99.90
14359;DHT22;7263;49.418;11.064;2023-12-22T16:03:48;7.30;99.90
14359;DHT22;7263;49.418;11.064;2023-12-22T16:06:16;7.30;99.90
14359;DHT22;7263;49.418;11.064;2023-12-22T16:08:46;7.30;99.90
14359;DHT22;7263;49.418;11.064;2023-12-22T16:11:19;7.30;99.90
14359;DHT22;7263;49.418;11.064;2023-12-22T16:13:49;7.40;99.90